sensor_id;sensor_type;location;lat;lon;timestamp;P1;durP1;ratioP1;P2;durP2;ratioP2
7179;SDS011;3631;42.152;24.756;2022-09-24T00:01:27;6.53;;;4.87;;
7179;SDS011;3631;42.152;24.756;2022-09-24T00:03:55;5.03;;;4.73;;
7179;SDS011;3631;42.152;24.756;2022-09-24T00:06:24;5.57;;;5.20;;
7179;SDS011;3631;42.152;24.756;2022-09-24T00:08:53;5.43;;;5.03;;
7179;SDS011;3631;42.152;24.756;2022-09-24T00:11:21;5.43;;;5.03;;
7179;SDS011;3631;42.152;24.756;2022-09-24T00:13:50;5.93;;;5.43;;
7179;SDS011;3631;42.152;24.756;2022-09-24T00:16:18;6.27;;;5.50;;
7179;SDS011;3631;42.152;24.756;2022-09-24T00:18:47;5.73;;;5.20;;
7179;SDS011;3631;42.152;24.756;2022-09-24T00:21:15;5.87;;;5.37;;
7179;SDS011;3631;42.152;24.756;2022-09-24T00:23:43;5.33;;;4.93;;
7179;SDS011;3631;42.152;24.756;2022-09-24T00:26:14;5.57;;;5.17;;
7179;SDS011;3631;42.152;24.756;2022-09-24T00:28:59;8.23;;;5.20;;
7179;SDS011;3631;42.152;24.756;2022-09-24T00:31:26;5.93;;;5.33;;
7179;SDS011;3631;42.152;24.756;2022-09-24T00:33:55;5.77;;;5.37;;
7179;SDS011;3631;42.152;24.756;2022-09-24T00:36:23;5.67;;;5.27;;
7179;SDS011;3631;42.152;24.756;2022-09-24T00:38:52;5.37;;;4.97;;
7179;SDS011;3631;42.152;24.756;2022-09-24T00:41:21;5.67;;;5.17;;
7179;SDS011;3631;42.152;24.756;2022-09-24T00:43:50;5.30;;;5.00;;
7179;SDS011;3631;42.152;24.756;2022-09-24T00:46:19;5.50;;;4.93;;
7179;SDS011;3631;42.152;24.756;2022-09-24T00:48:49;5.93;;;5.57;;
7179;SDS011;3631;42.152;24.756;2022-09-24T00:51:22;6.30;;;5.70;;
7179;SDS011;3631;42.152;24.756;2022-09-24T00:53:53;5.30;;;4.83;;
7179;SDS011;3631;42.152;24.756;2022-09-24T00:56:22;5.60;;;5.20;;
7179;SDS011;3631;42.152;24.756;2022-09-24T00:58:50;5.80;;;5.30;;
7179;SDS011;3631;42.152;24.756;2022-09-24T01:01:21;5.47;;;5.07;;
7179;SDS011;3631;42.152;24.756;2022-09-24T01:03:49;6.23;;;5.73;;
7179;SDS011;3631;42.152;24.756;2022-09-24T01:06:21;5.50;;;5.00;;
7179;SDS011;3631;42.152;24.756;2022-09-24T01:08:49;5.50;;;5.20;;
7179;SDS011;3631;42.152;24.756;2022-09-24T01:11:27;6.80;;;5.43;;
7179;SDS011;3631;42.152;24.756;2022-09-24T01:17:12;5.67;;;5.27;;
7179;SDS011;3631;42.152;24.756;2022-09-24T01:23:13;5.27;;;4.97;;
7179;SDS011;3631;42.152;24.756;2022-09-24T01:26:04;5.40;;;4.90;;
7179;SDS011;3631;42.152;24.756;2022-09-24T01:28:46;5.87;;;5.10;;
7179;SDS011;3631;42.152;24.756;2022-09-24T01:31:31;5.33;;;4.93;;
7179;SDS011;3631;42.152;24.756;2022-09-24T01:34:02;5.50;;;5.10;;
7179;SDS011;3631;42.152;24.756;2022-09-24T01:36:31;8.87;;;5.47;;
7179;SDS011;3631;42.152;24.756;2022-09-24T01:39:00;5.80;;;5.17;;
7179;SDS011;3631;42.152;24.756;2022-09-24T01:41:28;5.70;;;5.30;;
7179;SDS011;3631;42.152;24.756;2022-09-24T01:43:57;5.50;;;5.10;;
7179;SDS011;3631;42.152;24.756;2022-09-24T01:46:26;5.77;;;5.07;;
7179;SDS011;3631;42.152;24.756;2022-09-24T01:48:54;6.80;;;5.60;;
7179;SDS011;3631;42.152;24.756;2022-09-24T01:51:24;6.83;;;5.60;;
7179;SDS011;3631;42.152;24.756;2022-09-24T01:53:54;5.50;;;4.60;;
7179;SDS011;3631;42.152;24.756;2022-09-24T01:56:29;5.67;;;5.17;;
7179;SDS011;3631;42.152;24.756;2022-09-24T01:59:00;6.07;;;5.17;;
7179;SDS011;3631;42.152;24.756;2022-09-24T02:01:31;5.10;;;4.80;;
7179;SDS011;3631;42.152;24.756;2022-09-24T02:04:05;5.23;;;4.90;;
7179;SDS011;3631;42.152;24.756;2022-09-24T02:06:39;5.63;;;5.23;;
7179;SDS011;3631;42.152;24.756;2022-09-24T02:09:29;6.07;;;5.30;;
7179;SDS011;3631;42.152;24.756;2022-09-24T02:11:57;6.03;;;5.63;;
7179;SDS011;3631;42.152;24.756;2022-09-24T02:14:30;5.77;;;5.37;;
7179;SDS011;3631;42.152;24.756;2022-09-24T02:16:58;6.03;;;5.50;;
7179;SDS011;3631;42.152;24.756;2022-09-24T02:19:29;7.10;;;5.23;;
7179;SDS011;3631;42.152;24.756;2022-09-24T02:22:01;6.10;;;5.60;;
7179;SDS011;3631;42.152;24.756;2022-09-24T02:24:33;5.67;;;5.27;;
7179;SDS011;3631;42.152;24.756;2022-09-24T02:27:05;5.80;;;5.37;;
7179;SDS011;3631;42.152;24.756;2022-09-24T02:29:32;6.23;;;5.63;;
7179;SDS011;3631;42.152;24.756;2022-09-24T02:32:00;6.27;;;5.67;;
7179;SDS011;3631;42.152;24.756;2022-09-24T02:34:31;7.17;;;5.50;;
7179;SDS011;3631;42.152;24.756;2022-09-24T02:37:03;6.00;;;5.40;;
7179;SDS011;3631;42.152;24.756;2022-09-24T02:39:31;5.43;;;5.03;;
7179;SDS011;3631;42.152;24.756;2022-09-24T02:41:58;5.60;;;5.20;;
7179;SDS011;3631;42.152;24.756;2022-09-24T02:44:26;5.77;;;5.27;;
7179;SDS011;3631;42.152;24.756;2022-09-24T02:46:55;5.23;;;4.83;;
7179;SDS011;3631;42.152;24.756;2022-09-24T02:49:22;5.97;;;5.50;;
7179;SDS011;3631;42.152;24.756;2022-09-24T02:51:50;6.67;;;5.87;;
7179;SDS011;3631;42.152;24.756;2022-09-24T02:54:17;5.40;;;5.00;;
7179;SDS011;3631;42.152;24.756;2022-09-24T02:56:44;6.10;;;5.20;;
7179;SDS011;3631;42.152;24.756;2022-09-24T02:59:11;5.60;;;5.07;;
7179;SDS011;3631;42.152;24.756;2022-09-24T03:01:39;6.50;;;5.90;;
7179;SDS011;3631;42.152;24.756;2022-09-24T03:04:06;5.60;;;5.10;;
7179;SDS011;3631;42.152;24.756;2022-09-24T03:06:33;6.67;;;5.10;;
7179;SDS011;3631;42.152;24.756;2022-09-24T03:09:02;5.80;;;5.30;;
7179;SDS011;3631;42.152;24.756;2022-09-24T03:11:29;7.40;;;5.57;;
7179;SDS011;3631;42.152;24.756;2022-09-24T03:13:57;5.70;;;5.17;;
7179;SDS011;3631;42.152;24.756;2022-09-24T03:16:25;6.03;;;5.63;;
7179;SDS011;3631;42.152;24.756;2022-09-24T03:18:52;6.30;;;5.70;;
7179;SDS011;3631;42.152;24.756;2022-09-24T03:21:19;6.30;;;5.70;;
7179;SDS011;3631;42.152;24.756;2022-09-24T03:23:47;5.40;;;5.00;;
7179;SDS011;3631;42.152;24.756;2022-09-24T03:26:16;5.90;;;5.00;;
7179;SDS011;3631;42.152;24.756;2022-09-24T03:28:43;5.73;;;5.33;;
7179;SDS011;3631;42.152;24.756;2022-09-24T03:31:10;5.57;;;5.17;;
7179;SDS011;3631;42.152;24.756;2022-09-24T03:33:37;5.77;;;5.37;;
7179;SDS011;3631;42.152;24.756;2022-09-24T03:36:06;6.07;;;5.40;;
7179;SDS011;3631;42.152;24.756;2022-09-24T03:38:35;5.50;;;5.00;;
7179;SDS011;3631;42.152;24.756;2022-09-24T03:41:03;4.97;;;4.40;;
7179;SDS011;3631;42.152;24.756;2022-09-24T03:43:32;5.70;;;5.20;;
7179;SDS011;3631;42.152;24.756;2022-09-24T03:46:00;5.60;;;4.90;;
7179;SDS011;3631;42.152;24.756;2022-09-24T03:48:27;5.57;;;4.93;;
7179;SDS011;3631;42.152;24.756;2022-09-24T03:50:55;5.37;;;4.87;;
7179;SDS011;3631;42.152;24.756;2022-09-24T03:53:22;5.43;;;4.93;;
7179;SDS011;3631;42.152;24.756;2022-09-24T03:55:51;5.50;;;5.13;;
7179;SDS011;3631;42.152;24.756;2022-09-24T03:58:20;5.20;;;4.80;;
7179;SDS011;3631;42.152;24.756;2022-09-24T04:00:49;5.77;;;5.37;;
7179;SDS011;3631;42.152;24.756;2022-09-24T04:03:16;5.13;;;4.73;;
7179;SDS011;3631;42.152;24.756;2022-09-24T04:05:43;4.90;;;4.60;;
7179;SDS011;3631;42.152;24.756;2022-09-24T04:08:10;5.40;;;5.00;;
7179;SDS011;3631;42.152;24.756;2022-09-24T04:10:37;4.90;;;4.60;;
7179;SDS011;3631;42.152;24.756;2022-09-24T04:13:04;5.10;;;4.70;;
7179;SDS011;3631;42.152;24.756;2022-09-24T04:15:31;5.93;;;5.13;;
7179;SDS011;3631;42.152;24.756;2022-09-24T04:17:59;9.13;;;4.90;;
7179;SDS011;3631;42.152;24.756;2022-09-24T04:20:27;5.33;;;4.93;;
7179;SDS011;3631;42.152;24.756;2022-09-24T04:22:56;5.13;;;4.77;;
7179;SDS011;3631;42.152;24.756;2022-09-24T04:25:24;5.30;;;4.90;;
7179;SDS011;3631;42.152;24.756;2022-09-24T04:27:55;5.00;;;4.60;;
7179;SDS011;3631;42.152;24.756;2022-09-24T04:30:24;5.23;;;4.83;;
7179;SDS011;3631;42.152;24.756;2022-09-24T04:32:52;5.30;;;5.00;;
7179;SDS011;3631;42.152;24.756;2022-09-24T04:35:21;5.50;;;5.07;;
7179;SDS011;3631;42.152;24.756;2022-09-24T04:37:48;5.63;;;5.13;;
7179;SDS011;3631;42.152;24.756;2022-09-24T04:40:16;7.03;;;5.33;;
7179;SDS011;3631;42.152;24.756;2022-09-24T04:42:43;5.13;;;4.77;;
7179;SDS011;3631;42.152;24.756;2022-09-24T04:45:11;6.17;;;5.17;;
7179;SDS011;3631;42.152;24.756;2022-09-24T04:47:40;5.70;;;5.30;;
7179;SDS011;3631;42.152;24.756;2022-09-24T04:50:08;5.43;;;4.90;;
7179;SDS011;3631;42.152;24.756;2022-09-24T04:52:38;5.10;;;4.70;;
7179;SDS011;3631;42.152;24.756;2022-09-24T04:55:05;5.07;;;4.70;;
7179;SDS011;3631;42.152;24.756;2022-09-24T04:57:32;4.93;;;4.53;;
7179;SDS011;3631;42.152;24.756;2022-09-24T05:00:00;4.87;;;4.57;;
7179;SDS011;3631;42.152;24.756;2022-09-24T05:02:29;6.63;;;4.70;;
7179;SDS011;3631;42.152;24.756;2022-09-24T05:04:56;5.20;;;4.70;;
7179;SDS011;3631;42.152;24.756;2022-09-24T05:07:23;4.90;;;4.60;;
7179;SDS011;3631;42.152;24.756;2022-09-24T05:09:51;5.50;;;4.70;;
7179;SDS011;3631;42.152;24.756;2022-09-24T05:12:18;4.70;;;4.40;;
7179;SDS011;3631;42.152;24.756;2022-09-24T05:14:45;6.13;;;4.30;;
7179;SDS011;3631;42.152;24.756;2022-09-24T05:17:12;5.97;;;4.17;;
7179;SDS011;3631;42.152;24.756;2022-09-24T05:19:40;4.80;;;4.17;;
7179;SDS011;3631;42.152;24.756;2022-09-24T05:22:07;5.03;;;4.30;;
7179;SDS011;3631;42.152;24.756;2022-09-24T05:24:34;4.23;;;3.93;;
7179;SDS011;3631;42.152;24.756;2022-09-24T05:27:02;5.03;;;3.90;;
7179;SDS011;3631;42.152;24.756;2022-09-24T05:29:35;3.92;;;3.63;;
7179;SDS011;3631;42.152;24.756;2022-09-24T05:32:03;4.40;;;4.20;;
7179;SDS011;3631;42.152;24.756;2022-09-24T05:34:31;4.38;;;3.92;;
7179;SDS011;3631;42.152;24.756;2022-09-24T05:36:58;4.85;;;4.43;;
7179;SDS011;3631;42.152;24.756;2022-09-24T05:39:25;4.25;;;3.80;;
7179;SDS011;3631;42.152;24.756;2022-09-24T05:41:53;6.32;;;4.72;;
7179;SDS011;3631;42.152;24.756;2022-09-24T05:44:21;5.00;;;4.50;;
7179;SDS011;3631;42.152;24.756;2022-09-24T05:46:49;4.38;;;4.07;;
7179;SDS011;3631;42.152;24.756;2022-09-24T05:49:17;5.30;;;4.60;;
7179;SDS011;3631;42.152;24.756;2022-09-24T05:51:46;4.38;;;4.07;;
7179;SDS011;3631;42.152;24.756;2022-09-24T05:54:13;4.90;;;4.57;;
7179;SDS011;3631;42.152;24.756;2022-09-24T05:56:40;5.18;;;4.65;;
7179;SDS011;3631;42.152;24.756;2022-09-24T05:59:07;4.65;;;4.20;;
7179;SDS011;3631;42.152;24.756;2022-09-24T06:01:35;4.60;;;4.20;;
7179;SDS011;3631;42.152;24.756;2022-09-24T06:04:02;4.25;;;3.95;;
7179;SDS011;3631;42.152;24.756;2022-09-24T06:06:29;4.00;;;3.67;;
7179;SDS011;3631;42.152;24.756;2022-09-24T06:08:56;5.95;;;4.15;;
7179;SDS011;3631;42.152;24.756;2022-09-24T06:11:23;4.00;;;3.80;;
7179;SDS011;3631;42.152;24.756;2022-09-24T06:13:56;6.88;;;3.90;;
7179;SDS011;3631;42.152;24.756;2022-09-24T06:16:23;5.50;;;3.53;;
7179;SDS011;3631;42.152;24.756;2022-09-24T06:18:51;3.90;;;3.70;;
7179;SDS011;3631;42.152;24.756;2022-09-24T06:21:18;3.92;;;3.70;;
7179;SDS011;3631;42.152;24.756;2022-09-24T06:23:45;4.80;;;3.78;;
7179;SDS011;3631;42.152;24.756;2022-09-24T06:26:14;4.10;;;3.72;;
7179;SDS011;3631;42.152;24.756;2022-09-24T06:28:41;3.85;;;3.53;;
7179;SDS011;3631;42.152;24.756;2022-09-24T06:31:08;3.25;;;3.15;;
7179;SDS011;3631;42.152;24.756;2022-09-24T06:33:36;3.17;;;2.90;;
7179;SDS011;3631;42.152;24.756;2022-09-24T06:36:06;3.10;;;2.90;;
7179;SDS011;3631;42.152;24.756;2022-09-24T06:38:33;3.47;;;3.17;;
7179;SDS011;3631;42.152;24.756;2022-09-24T06:41:02;3.28;;;3.08;;
7179;SDS011;3631;42.152;24.756;2022-09-24T06:43:30;3.42;;;3.22;;
7179;SDS011;3631;42.152;24.756;2022-09-24T06:45:59;3.10;;;3.00;;
7179;SDS011;3631;42.152;24.756;2022-09-24T06:48:27;3.22;;;3.03;;
7179;SDS011;3631;42.152;24.756;2022-09-24T06:50:55;2.95;;;2.75;;
7179;SDS011;3631;42.152;24.756;2022-09-24T06:53:23;2.92;;;2.78;;
7179;SDS011;3631;42.152;24.756;2022-09-24T06:55:50;2.92;;;2.72;;
7179;SDS011;3631;42.152;24.756;2022-09-24T06:58:18;4.60;;;2.88;;
7179;SDS011;3631;42.152;24.756;2022-09-24T07:00:49;2.88;;;2.75;;
7179;SDS011;3631;42.152;24.756;2022-09-24T07:03:18;4.55;;;2.58;;
7179;SDS011;3631;42.152;24.756;2022-09-24T07:05:45;4.60;;;2.60;;
7179;SDS011;3631;42.152;24.756;2022-09-24T07:08:12;2.60;;;2.50;;
7179;SDS011;3631;42.152;24.756;2022-09-24T07:10:44;2.80;;;2.70;;
7179;SDS011;3631;42.152;24.756;2022-09-24T07:13:13;3.70;;;2.28;;
7179;SDS011;3631;42.152;24.756;2022-09-24T07:15:40;3.13;;;2.80;;
7179;SDS011;3631;42.152;24.756;2022-09-24T07:18:08;3.80;;;2.50;;
7179;SDS011;3631;42.152;24.756;2022-09-24T07:20:35;2.65;;;2.22;;
7179;SDS011;3631;42.152;24.756;2022-09-24T07:23:02;3.08;;;2.63;;
7179;SDS011;3631;42.152;24.756;2022-09-24T07:25:29;2.60;;;2.50;;
7179;SDS011;3631;42.152;24.756;2022-09-24T07:28:00;3.10;;;2.90;;
7179;SDS011;3631;42.152;24.756;2022-09-24T07:30:28;3.45;;;2.85;;
7179;SDS011;3631;42.152;24.756;2022-09-24T07:32:55;6.80;;;2.90;;
7179;SDS011;3631;42.152;24.756;2022-09-24T07:35:23;3.70;;;3.15;;
7179;SDS011;3631;42.152;24.756;2022-09-24T07:37:57;3.60;;;2.67;;
7179;SDS011;3631;42.152;24.756;2022-09-24T07:40:25;2.35;;;2.25;;
7179;SDS011;3631;42.152;24.756;2022-09-24T07:42:52;2.65;;;2.45;;
7179;SDS011;3631;42.152;24.756;2022-09-24T07:45:21;2.60;;;2.50;;
7179;SDS011;3631;42.152;24.756;2022-09-24T07:47:55;5.90;;;2.72;;
7179;SDS011;3631;42.152;24.756;2022-09-24T07:50:22;3.78;;;2.83;;
7179;SDS011;3631;42.152;24.756;2022-09-24T07:52:50;2.80;;;2.70;;
7179;SDS011;3631;42.152;24.756;2022-09-24T07:55:17;3.35;;;3.10;;
7179;SDS011;3631;42.152;24.756;2022-09-24T07:57:47;3.03;;;2.78;;
7179;SDS011;3631;42.152;24.756;2022-09-24T08:00:15;3.10;;;2.90;;
7179;SDS011;3631;42.152;24.756;2022-09-24T08:02:44;3.20;;;3.10;;
7179;SDS011;3631;42.152;24.756;2022-09-24T08:05:11;5.00;;;4.10;;
7179;SDS011;3631;42.152;24.756;2022-09-24T08:07:39;3.80;;;3.40;;
7179;SDS011;3631;42.152;24.756;2022-09-24T08:10:06;4.90;;;4.50;;
7179;SDS011;3631;42.152;24.756;2022-09-24T08:12:34;3.67;;;3.30;;
7179;SDS011;3631;42.152;24.756;2022-09-24T08:15:00;3.92;;;3.53;;
7179;SDS011;3631;42.152;24.756;2022-09-24T08:17:27;3.17;;;2.80;;
7179;SDS011;3631;42.152;24.756;2022-09-24T08:19:56;3.22;;;2.85;;
7179;SDS011;3631;42.152;24.756;2022-09-24T08:22:23;3.75;;;3.55;;
7179;SDS011;3631;42.152;24.756;2022-09-24T08:24:50;4.50;;;3.90;;
7179;SDS011;3631;42.152;24.756;2022-09-24T08:27:17;5.38;;;3.60;;
7179;SDS011;3631;42.152;24.756;2022-09-24T08:29:45;6.15;;;3.78;;
7179;SDS011;3631;42.152;24.756;2022-09-24T08:32:12;3.75;;;3.45;;
7179;SDS011;3631;42.152;24.756;2022-09-24T08:34:39;4.82;;;4.18;;
7179;SDS011;3631;42.152;24.756;2022-09-24T08:37:11;4.10;;;3.75;;
7179;SDS011;3631;42.152;24.756;2022-09-24T08:39:46;4.15;;;2.90;;
7179;SDS011;3631;42.152;24.756;2022-09-24T08:42:14;6.18;;;3.50;;
7179;SDS011;3631;42.152;24.756;2022-09-24T08:44:50;3.08;;;2.97;;
7179;SDS011;3631;42.152;24.756;2022-09-24T08:47:38;3.55;;;3.13;;
7179;SDS011;3631;42.152;24.756;2022-09-24T08:50:13;4.15;;;2.97;;
7179;SDS011;3631;42.152;24.756;2022-09-24T08:52:50;3.05;;;2.85;;
7179;SDS011;3631;42.152;24.756;2022-09-24T08:55:24;2.65;;;2.55;;
7179;SDS011;3631;42.152;24.756;2022-09-24T08:57:59;2.65;;;2.55;;
7179;SDS011;3631;42.152;24.756;2022-09-24T09:00:38;2.85;;;2.65;;
7179;SDS011;3631;42.152;24.756;2022-09-24T09:03:11;2.78;;;2.58;;
7179;SDS011;3631;42.152;24.756;2022-09-24T09:05:51;4.32;;;3.25;;
7179;SDS011;3631;42.152;24.756;2022-09-24T09:08:26;3.13;;;2.92;;
7179;SDS011;3631;42.152;24.756;2022-09-24T09:11:00;2.70;;;2.60;;
7179;SDS011;3631;42.152;24.756;2022-09-24T09:13:29;3.30;;;3.15;;
7179;SDS011;3631;42.152;24.756;2022-09-24T09:16:03;3.33;;;3.03;;
7179;SDS011;3631;42.152;24.756;2022-09-24T09:18:33;2.45;;;2.25;;
7179;SDS011;3631;42.152;24.756;2022-09-24T09:21:07;3.42;;;3.10;;
7179;SDS011;3631;42.152;24.756;2022-09-24T09:23:42;2.70;;;2.60;;
7179;SDS011;3631;42.152;24.756;2022-09-24T09:26:13;2.60;;;2.50;;
7179;SDS011;3631;42.152;24.756;2022-09-24T09:28:42;2.63;;;2.42;;
7179;SDS011;3631;42.152;24.756;2022-09-24T09:31:14;1.88;;;1.70;;
7179;SDS011;3631;42.152;24.756;2022-09-24T09:33:52;2.20;;;2.00;;
7179;SDS011;3631;42.152;24.756;2022-09-24T09:36:36;2.65;;;2.30;;
7179;SDS011;3631;42.152;24.756;2022-09-24T09:39:18;2.85;;;2.65;;
7179;SDS011;3631;42.152;24.756;2022-09-24T09:41:55;2.58;;;2.47;;
7179;SDS011;3631;42.152;24.756;2022-09-24T09:44:29;2.45;;;2.35;;
7179;SDS011;3631;42.152;24.756;2022-09-24T09:47:04;2.85;;;2.13;;
7179;SDS011;3631;42.152;24.756;2022-09-24T09:49:42;2.72;;;2.55;;
7179;SDS011;3631;42.152;24.756;2022-09-24T09:52:12;2.40;;;2.30;;
7179;SDS011;3631;42.152;24.756;2022-09-24T09:54:43;2.60;;;2.40;;
7179;SDS011;3631;42.152;24.756;2022-09-24T09:57:11;2.40;;;2.30;;
7179;SDS011;3631;42.152;24.756;2022-09-24T09:59:41;2.80;;;2.05;;
7179;SDS011;3631;42.152;24.756;2022-09-24T10:02:16;2.35;;;1.90;;
7179;SDS011;3631;42.152;24.756;2022-09-24T10:04:50;1.90;;;1.80;;
7179;SDS011;3631;42.152;24.756;2022-09-24T10:07:20;2.22;;;2.13;;
7179;SDS011;3631;42.152;24.756;2022-09-24T10:09:56;2.25;;;2.15;;
7179;SDS011;3631;42.152;24.756;2022-09-24T10:12:26;2.17;;;2.08;;
7179;SDS011;3631;42.152;24.756;2022-09-24T10:14:57;2.10;;;2.00;;
7179;SDS011;3631;42.152;24.756;2022-09-24T10:17:27;4.25;;;2.33;;
7179;SDS011;3631;42.152;24.756;2022-09-24T10:19:56;2.00;;;1.90;;
7179;SDS011;3631;42.152;24.756;2022-09-24T10:22:26;2.40;;;2.30;;
7179;SDS011;3631;42.152;24.756;2022-09-24T10:24:56;2.55;;;2.28;;
7179;SDS011;3631;42.152;24.756;2022-09-24T10:27:28;1.98;;;1.88;;
7179;SDS011;3631;42.152;24.756;2022-09-24T10:29:58;2.58;;;2.05;;
7179;SDS011;3631;42.152;24.756;2022-09-24T10:32:44;2.30;;;2.20;;
7179;SDS011;3631;42.152;24.756;2022-09-24T10:35:20;2.20;;;2.10;;
7179;SDS011;3631;42.152;24.756;2022-09-24T10:37:50;2.15;;;2.05;;
7179;SDS011;3631;42.152;24.756;2022-09-24T10:40:20;1.90;;;1.80;;
7179;SDS011;3631;42.152;24.756;2022-09-24T10:42:55;2.17;;;2.08;;
7179;SDS011;3631;42.152;24.756;2022-09-24T10:45:33;2.15;;;2.05;;
7179;SDS011;3631;42.152;24.756;2022-09-24T10:48:15;2.40;;;2.30;;
7179;SDS011;3631;42.152;24.756;2022-09-24T10:50:49;2.35;;;2.25;;
7179;SDS011;3631;42.152;24.756;2022-09-24T10:53:26;2.55;;;2.35;;
7179;SDS011;3631;42.152;24.756;2022-09-24T10:56:06;2.88;;;2.67;;
7179;SDS011;3631;42.152;24.756;2022-09-24T10:58:59;3.58;;;2.40;;
7179;SDS011;3631;42.152;24.756;2022-09-24T11:01:39;2.35;;;2.25;;
7179;SDS011;3631;42.152;24.756;2022-09-24T11:04:17;2.20;;;2.10;;
7179;SDS011;3631;42.152;24.756;2022-09-24T11:10:09;2.58;;;2.47;;
7179;SDS011;3631;42.152;24.756;2022-09-24T11:12:50;2.35;;;2.25;;
7179;SDS011;3631;42.152;24.756;2022-09-24T11:15:32;2.22;;;2.13;;
7179;SDS011;3631;42.152;24.756;2022-09-24T11:18:16;3.28;;;2.50;;
7179;SDS011;3631;42.152;24.756;2022-09-24T11:20:53;3.22;;;2.13;;
7179;SDS011;3631;42.152;24.756;2022-09-24T11:23:33;2.70;;;2.60;;
7179;SDS011;3631;42.152;24.756;2022-09-24T11:26:13;2.30;;;2.20;;
7179;SDS011;3631;42.152;24.756;2022-09-24T11:31:48;2.60;;;2.30;;
7179;SDS011;3631;42.152;24.756;2022-09-24T11:34:38;2.80;;;2.70;;
7179;SDS011;3631;42.152;24.756;2022-09-24T11:37:20;2.70;;;2.55;;
7179;SDS011;3631;42.152;24.756;2022-09-24T11:40:01;3.40;;;3.20;;
7179;SDS011;3631;42.152;24.756;2022-09-24T11:42:43;3.53;;;2.38;;
7179;SDS011;3631;42.152;24.756;2022-09-24T11:45:30;2.60;;;2.40;;
7179;SDS011;3631;42.152;24.756;2022-09-24T11:48:31;2.55;;;2.38;;
7179;SDS011;3631;42.152;24.756;2022-09-24T11:51:11;3.17;;;2.40;;
7179;SDS011;3631;42.152;24.756;2022-09-24T11:53:50;2.03;;;1.92;;
7179;SDS011;3631;42.152;24.756;2022-09-24T11:56:23;2.78;;;2.50;;
7179;SDS011;3631;42.152;24.756;2022-09-24T11:58:55;6.28;;;2.15;;
7179;SDS011;3631;42.152;24.756;2022-09-24T12:01:30;2.33;;;2.22;;
7179;SDS011;3631;42.152;24.756;2022-09-24T12:04:01;2.30;;;2.20;;
7179;SDS011;3631;42.152;24.756;2022-09-24T12:06:32;2.38;;;2.20;;
7179;SDS011;3631;42.152;24.756;2022-09-24T12:09:08;2.20;;;2.00;;
7179;SDS011;3631;42.152;24.756;2022-09-24T12:11:44;2.30;;;2.20;;
7179;SDS011;3631;42.152;24.756;2022-09-24T12:14:16;2.63;;;2.53;;
7179;SDS011;3631;42.152;24.756;2022-09-24T12:16:48;2.58;;;2.28;;
7179;SDS011;3631;42.152;24.756;2022-09-24T12:19:19;2.20;;;2.00;;
7179;SDS011;3631;42.152;24.756;2022-09-24T12:21:50;2.65;;;2.25;;
7179;SDS011;3631;42.152;24.756;2022-09-24T12:24:20;2.55;;;2.35;;
7179;SDS011;3631;42.152;24.756;2022-09-24T12:26:55;2.53;;;2.20;;
7179;SDS011;3631;42.152;24.756;2022-09-24T12:29:35;3.35;;;2.63;;
7179;SDS011;3631;42.152;24.756;2022-09-24T12:32:29;3.22;;;3.13;;
7179;SDS011;3631;42.152;24.756;2022-09-24T12:35:20;2.80;;;2.60;;
7179;SDS011;3631;42.152;24.756;2022-09-24T12:37:57;2.47;;;2.38;;
7179;SDS011;3631;42.152;24.756;2022-09-24T12:40:39;2.72;;;2.40;;
7179;SDS011;3631;42.152;24.756;2022-09-24T12:43:37;2.85;;;2.00;;
7179;SDS011;3631;42.152;24.756;2022-09-24T12:46:13;2.40;;;2.20;;
7179;SDS011;3631;42.152;24.756;2022-09-24T12:48:41;2.38;;;2.28;;
7179;SDS011;3631;42.152;24.756;2022-09-24T12:51:10;2.78;;;2.50;;
7179;SDS011;3631;42.152;24.756;2022-09-24T12:53:39;2.30;;;2.20;;
7179;SDS011;3631;42.152;24.756;2022-09-24T12:56:08;2.33;;;2.22;;
7179;SDS011;3631;42.152;24.756;2022-09-24T12:58:37;2.10;;;2.00;;
7179;SDS011;3631;42.152;24.756;2022-09-24T13:01:07;2.50;;;2.40;;
7179;SDS011;3631;42.152;24.756;2022-09-24T13:03:39;2.92;;;2.70;;
7179;SDS011;3631;42.152;24.756;2022-09-24T13:06:22;2.40;;;2.30;;
7179;SDS011;3631;42.152;24.756;2022-09-24T13:08:57;2.47;;;2.28;;
7179;SDS011;3631;42.152;24.756;2022-09-24T13:11:28;2.40;;;2.20;;
7179;SDS011;3631;42.152;24.756;2022-09-24T13:14:04;2.10;;;2.00;;
7179;SDS011;3631;42.152;24.756;2022-09-24T13:16:43;2.10;;;2.00;;
7179;SDS011;3631;42.152;24.756;2022-09-24T13:19:20;2.67;;;2.58;;
7179;SDS011;3631;42.152;24.756;2022-09-24T13:21:56;2.65;;;2.50;;
7179;SDS011;3631;42.152;24.756;2022-09-24T13:24:25;2.80;;;2.60;;
7179;SDS011;3631;42.152;24.756;2022-09-24T13:27:06;4.75;;;2.50;;
7179;SDS011;3631;42.152;24.756;2022-09-24T13:29:36;2.50;;;2.40;;
7179;SDS011;3631;42.152;24.756;2022-09-24T13:32:04;2.10;;;1.95;;
7179;SDS011;3631;42.152;24.756;2022-09-24T13:34:36;2.50;;;2.40;;
7179;SDS011;3631;42.152;24.756;2022-09-24T13:37:10;2.40;;;2.30;;
7179;SDS011;3631;42.152;24.756;2022-09-24T13:39:46;2.85;;;2.65;;
7179;SDS011;3631;42.152;24.756;2022-09-24T13:42:17;2.33;;;2.22;;
7179;SDS011;3631;42.152;24.756;2022-09-24T13:44:47;3.90;;;3.70;;
7179;SDS011;3631;42.152;24.756;2022-09-24T13:47:21;3.38;;;2.67;;
7179;SDS011;3631;42.152;24.756;2022-09-24T13:49:54;2.47;;;2.28;;
7179;SDS011;3631;42.152;24.756;2022-09-24T13:52:31;3.22;;;3.03;;
7179;SDS011;3631;42.152;24.756;2022-09-24T13:55:04;2.50;;;2.40;;
7179;SDS011;3631;42.152;24.756;2022-09-24T13:57:41;2.33;;;2.22;;
7179;SDS011;3631;42.152;24.756;2022-09-24T14:00:12;2.67;;;2.45;;
7179;SDS011;3631;42.152;24.756;2022-09-24T14:02:44;2.53;;;2.33;;
7179;SDS011;3631;42.152;24.756;2022-09-24T14:05:19;3.65;;;2.63;;
7179;SDS011;3631;42.152;24.756;2022-09-24T14:07:53;3.85;;;3.60;;
7179;SDS011;3631;42.152;24.756;2022-09-24T14:10:22;5.30;;;4.80;;
7179;SDS011;3631;42.152;24.756;2022-09-24T14:12:58;3.20;;;3.00;;
7179;SDS011;3631;42.152;24.756;2022-09-24T14:15:32;2.45;;;2.35;;
7179;SDS011;3631;42.152;24.756;2022-09-24T14:18:00;2.80;;;2.60;;
7179;SDS011;3631;42.152;24.756;2022-09-24T14:20:28;2.80;;;2.60;;
7179;SDS011;3631;42.152;24.756;2022-09-24T14:22:59;2.92;;;2.80;;
7179;SDS011;3631;42.152;24.756;2022-09-24T14:25:30;3.78;;;3.20;;
7179;SDS011;3631;42.152;24.756;2022-09-24T14:27:59;4.50;;;4.10;;
7179;SDS011;3631;42.152;24.756;2022-09-24T14:30:29;4.47;;;4.03;;
7179;SDS011;3631;42.152;24.756;2022-09-24T14:32:59;3.22;;;3.03;;
7179;SDS011;3631;42.152;24.756;2022-09-24T14:35:28;3.40;;;3.20;;
7179;SDS011;3631;42.152;24.756;2022-09-24T14:37:58;3.38;;;3.08;;
7179;SDS011;3631;42.152;24.756;2022-09-24T14:40:38;2.65;;;2.47;;
7179;SDS011;3631;42.152;24.756;2022-09-24T14:43:10;4.97;;;3.53;;
7179;SDS011;3631;42.152;24.756;2022-09-24T14:45:42;3.75;;;3.13;;
7179;SDS011;3631;42.152;24.756;2022-09-24T14:48:18;5.30;;;3.05;;
7179;SDS011;3631;42.152;24.756;2022-09-24T14:50:52;3.35;;;2.97;;
7179;SDS011;3631;42.152;24.756;2022-09-24T14:53:21;2.50;;;2.30;;
7179;SDS011;3631;42.152;24.756;2022-09-24T14:55:52;3.40;;;2.58;;
7179;SDS011;3631;42.152;24.756;2022-09-24T14:58:23;4.13;;;3.83;;
7179;SDS011;3631;42.152;24.756;2022-09-24T15:00:52;4.60;;;3.22;;
7179;SDS011;3631;42.152;24.756;2022-09-24T15:03:24;5.07;;;2.63;;
7179;SDS011;3631;42.152;24.756;2022-09-24T15:06:05;5.28;;;3.03;;
7179;SDS011;3631;42.152;24.756;2022-09-24T15:08:43;2.88;;;2.78;;
7179;SDS011;3631;42.152;24.756;2022-09-24T15:11:13;3.10;;;2.90;;
7179;SDS011;3631;42.152;24.756;2022-09-24T15:13:42;5.03;;;2.92;;
7179;SDS011;3631;42.152;24.756;2022-09-24T15:16:17;3.20;;;2.97;;
7179;SDS011;3631;42.152;24.756;2022-09-24T15:18:48;2.95;;;2.75;;
7179;SDS011;3631;42.152;24.756;2022-09-24T15:21:23;3.30;;;3.00;;
7179;SDS011;3631;42.152;24.756;2022-09-24T15:23:53;4.68;;;2.95;;
7179;SDS011;3631;42.152;24.756;2022-09-24T15:26:22;4.50;;;3.25;;
7179;SDS011;3631;42.152;24.756;2022-09-24T15:28:52;3.40;;;3.03;;
7179;SDS011;3631;42.152;24.756;2022-09-24T15:31:20;3.25;;;3.03;;
7179;SDS011;3631;42.152;24.756;2022-09-24T15:33:47;3.33;;;3.13;;
7179;SDS011;3631;42.152;24.756;2022-09-24T15:36:14;3.25;;;2.88;;
7179;SDS011;3631;42.152;24.756;2022-09-24T15:38:45;3.63;;;3.33;;